Time;durP1;ratioP1;P1;durP2;ratioP2;P2;SDS_P1;SDS_P2;PMS_P1;PMS_P2;Temp;Humidity;BMP_temperature;BMP_pressure;BME280_temperature;BME280_humidity;BME280_pressure;Samples;Min_cycle;Max_cycle;Signal;HPM_P1;HPM_P2
2022/01/20 00:00:16;;;;;;;30.15;8.15;;;3.50;99.90;;;;;;7234264;32;20334;-75
2022/01/20 00:04:27;;;;;;;24.60;5.70;;;3.50;99.90;;;;;;7228015;32;20487;-76
2022/01/20 00:34:42;;;;;;;25.80;5.00;;;3.00;99.90;;;;;;7221829;32;20646;-76
2022/01/20 00:38:44;;;;;;;26.83;5.05;;;2.90;99.90;;;;;;7220135;32;20113;-76
2022/01/20 00:42:46;;;;;;;23.38;5.25;;;2.80;99.90;;;;;;7222189;32;20168;-76
2022/01/20 00:46:47;;;;;;;35.00;5.47;;;2.70;99.90;;;;;;7227587;32;20122;-76
2022/01/20 00:50:50;;;;;;;21.02;4.93;;;2.80;99.90;;;;;;7219807;32;20250;-76
2022/01/20 00:54:52;;;;;;;26.65;4.18;;;2.80;99.90;;;;;;7226480;32;20283;-76
2022/01/20 00:58:53;;;;;;;25.12;4.37;;;2.80;99.90;;;;;;7235121;32;20263;-76
2022/01/20 01:02:56;;;;;;;25.08;4.65;;;2.90;99.90;;;;;;7219493;32;20173;-76
2022/01/20 01:11:19;;;;;;;35.83;4.87;;;3.00;99.90;;;;;;7231590;32;20176;-77
2022/01/20 01:15:30;;;;;;;28.33;4.25;;;3.00;99.90;;;;;;7221933;32;20310;-77
2022/01/20 01:23:52;;;;;;;28.62;5.55;;;3.00;99.90;;;;;;7219549;32;20218;-76
2022/01/20 01:27:54;;;;;;;21.87;3.37;;;3.10;99.90;;;;;;7228877;32;20176;-76
2022/01/20 01:31:56;;;;;;;32.25;3.55;;;3.00;99.90;;;;;;7222076;32;20187;-76
2022/01/20 01:35:58;;;;;;;35.13;4.25;;;3.20;99.90;;;;;;7215262;32;20102;-76
2022/01/20 01:40:04;;;;;;;32.70;3.72;;;3.30;99.90;;;;;;7228474;32;20256;-76
2022/01/20 01:44:19;;;;;;;25.60;3.92;;;3.40;99.90;;;;;;7219437;32;20105;-76
2022/01/20 01:48:20;;;;;;;26.42;3.60;;;3.50;99.90;;;;;;7222052;32;20120;-76
2022/01/20 01:52:22;;;;;;;23.27;3.65;;;3.50;99.90;;;;;;7229373;32;20200;-76
2022/01/20 01:56:24;;;;;;;32.00;5.15;;;3.60;99.90;;;;;;7227900;32;20200;-76
2022/01/20 02:00:26;;;;;;;32.38;3.47;;;3.60;99.90;;;;;;7228082;32;20132;-76
2022/01/20 02:04:28;;;;;;;28.27;4.68;;;3.60;99.90;;;;;;7211360;32;20426;-76
2022/01/20 02:21:32;;;;;;;17.58;2.25;;;3.70;99.90;;;;;;7210005;32;20239;-76
2022/01/20 02:25:37;;;;;;;15.55;2.42;;;3.60;99.90;;;;;;7229341;32;20715;-76
2022/01/20 02:29:39;;;;;;;19.50;3.08;;;3.50;99.90;;;;;;7229882;32;20596;-76
2022/01/20 02:33:41;;;;;;;26.87;2.85;;;3.50;99.90;;;;;;7224272;32;20243;-76
2022/01/20 02:47:07;;;;;;;20.37;2.37;;;3.40;99.90;;;;;;7222804;32;20302;-76
2022/01/20 02:51:09;;;;;;;22.30;3.10;;;3.40;99.90;;;;;;7227544;32;20105;-76
2022/01/20 02:55:11;;;;;;;17.75;2.90;;;3.30;99.90;;;;;;7229688;32;20129;-76
2022/01/20 02:59:13;;;;;;;24.23;2.58;;;3.40;99.90;;;;;;7215027;32;20966;-76
2022/01/20 03:03:16;;;;;;;23.17;3.05;;;3.40;99.90;;;;;;7231442;32;20791;-76
2022/01/20 03:07:18;;;;;;;21.42;2.50;;;3.50;99.90;;;;;;7204587;32;20120;-76
2022/01/20 03:11:20;;;;;;;18.77;2.25;;;3.50;99.90;;;;;;7220551;32;20174;-76
2022/01/20 03:15:23;;;;;;;16.25;2.67;;;3.60;99.90;;;;;;7214994;32;20132;-76
2022/01/20 03:19:25;;;;;;;21.15;2.78;;;3.50;99.90;;;;;;7226260;32;20100;-76
2022/01/20 03:23:27;;;;;;;21.67;2.65;;;3.40;99.90;;;;;;7227436;32;20127;-76
2022/01/20 03:27:29;;;;;;;16.77;2.72;;;3.40;99.90;;;;;;7222357;32;20188;-76
2022/01/20 03:31:31;;;;;;;20.80;2.42;;;3.20;99.90;;;;;;7224318;32;20112;-76
2022/01/20 03:35:33;;;;;;;12.77;2.20;;;3.30;99.90;;;;;;7222184;32;20285;-76
2022/01/20 03:39:35;;;;;;;18.30;1.90;;;3.40;99.90;;;;;;7209633;32;20624;-76
2022/01/20 03:43:37;;;;;;;19.48;3.05;;;3.40;99.90;;;;;;7198264;32;20590;-76
2022/01/20 03:47:39;;;;;;;16.37;2.45;;;3.40;99.90;;;;;;7224382;32;20109;-76
2022/01/20 03:51:40;;;;;;;17.48;2.22;;;3.40;99.90;;;;;;7213760;32;20135;-76
2022/01/20 03:55:42;;;;;;;16.67;2.10;;;3.40;99.90;;;;;;7227829;32;20214;-76
2022/01/20 03:59:45;;;;;;;15.80;2.70;;;3.40;99.90;;;;;;7217926;32;20236;-76
2022/01/20 04:03:47;;;;;;;18.08;2.25;;;3.50;99.90;;;;;;7197070;32;20105;-76
2022/01/20 04:07:48;;;;;;;13.80;1.90;;;3.50;99.90;;;;;;7227440;32;20573;-75
2022/01/20 04:11:51;;;;;;;20.12;2.30;;;3.40;99.90;;;;;;7224252;32;20126;-76
2022/01/20 04:15:54;;;;;;;18.55;2.58;;;3.40;99.90;;;;;;7232195;32;20196;-76
2022/01/20 04:19:55;;;;;;;15.70;2.30;;;3.30;99.90;;;;;;7233140;32;20218;-76
2022/01/20 04:23:59;;;;;;;13.30;1.95;;;3.30;99.90;;;;;;7223710;32;20184;-75
2022/01/20 04:28:01;;;;;;;14.75;1.65;;;3.30;99.90;;;;;;7227297;32;20188;-75
2022/01/20 04:32:03;;;;;;;11.10;2.05;;;3.30;99.90;;;;;;7224038;32;20314;-75
2022/01/20 04:36:06;;;;;;;11.12;1.48;;;3.40;99.90;;;;;;7226228;32;20131;-76
2022/01/20 04:40:09;;;;;;;8.95;1.40;;;3.40;99.90;;;;;;7232399;32;20246;-76
2022/01/20 04:44:17;;;;;;;13.43;1.85;;;3.40;99.90;;;;;;7223685;32;20514;-76
2022/01/20 04:48:28;;;;;;;13.32;1.83;;;3.50;99.90;;;;;;7231807;32;20475;-75
2022/01/20 05:01:15;;;;;;;15.40;2.60;;;3.60;99.90;;;;;;7233851;32;20097;-75
2022/01/20 05:05:17;;;;;;;14.87;2.62;;;3.60;99.90;;;;;;7212011;32;20175;-75
2022/01/20 05:09:21;;;;;;;14.18;2.28;;;3.70;99.90;;;;;;7219399;32;20581;-75
2022/01/20 05:13:40;;;;;;;18.55;2.60;;;3.60;99.90;;;;;;7224494;32;20587;-75
2022/01/20 05:17:42;;;;;;;8.95;2.15;;;3.60;99.90;;;;;;7211992;32;20183;-76
2022/01/20 05:21:44;;;;;;;17.40;2.72;;;3.70;99.90;;;;;;7218889;32;20121;-77
2022/01/20 05:25:46;;;;;;;13.75;2.30;;;3.70;99.90;;;;;;7217167;32;20482;-76
2022/01/20 05:29:47;;;;;;;13.95;2.08;;;3.70;99.90;;;;;;7226652;32;20154;-75
2022/01/20 05:33:49;;;;;;;15.55;2.65;;;3.70;99.90;;;;;;7223729;32;20515;-77
2022/01/20 05:37:56;;;;;;;16.15;4.07;;;3.70;99.90;;;;;;7211846;32;20184;-77
2022/01/20 05:41:58;;;;;;;15.98;3.92;;;3.80;99.90;;;;;;7217589;32;20196;-77
2022/01/20 05:46:02;;;;;;;19.55;3.53;;;3.80;99.90;;;;;;7222526;32;20180;-77
2022/01/20 05:50:04;;;;;;;15.90;4.03;;;3.70;99.90;;;;;;7220841;32;20505;-77
2022/01/20 05:54:07;;;;;;;18.20;2.92;;;3.70;99.90;;;;;;7216452;32;20276;-77
2022/01/20 05:58:09;;;;;;;13.75;2.62;;;3.60;99.90;;;;;;7227911;32;20090;-77
2022/01/20 06:02:28;;;;;;;20.40;2.92;;;3.60;99.90;;;;;;7230764;32;20829;-77
2022/01/20 06:06:30;;;;;;;10.55;1.90;;;3.40;99.90;;;;;;7231562;32;20125;-76
2022/01/20 06:10:32;;;;;;;13.32;1.92;;;3.50;99.90;;;;;;7204838;32;20860;-78
2022/01/20 06:14:34;;;;;;;10.52;2.28;;;3.40;99.90;;;;;;7223307;32;20133;-77
2022/01/20 06:18:36;;;;;;;19.37;2.25;;;3.50;99.90;;;;;;7214621;32;20097;-77
2022/01/20 06:22:38;;;;;;;9.25;1.25;;;3.40;99.90;;;;;;7203665;32;20726;-77
2022/01/20 06:26:41;;;;;;;9.60;2.05;;;3.40;99.90;;;;;;7216506;32;20104;-77
2022/01/20 06:30:43;;;;;;;20.27;2.28;;;3.30;99.90;;;;;;7213432;32;20239;-76
2022/01/20 06:34:46;;;;;;;15.07;1.90;;;3.30;99.90;;;;;;7236943;32;20801;-76
2022/01/20 06:38:48;;;;;;;15.77;1.98;;;3.20;99.90;;;;;;7216086;32;20121;-76
2022/01/20 06:42:50;;;;;;;9.57;2.35;;;3.20;99.90;;;;;;7248959;32;20489;-75
2022/01/20 06:46:52;;;;;;;8.30;1.55;;;3.20;99.90;;;;;;7226487;32;20180;-75
2022/01/20 06:50:53;;;;;;;10.48;1.48;;;3.30;99.90;;;;;;7224316;32;20238;-76
2022/01/20 06:54:56;;;;;;;12.32;2.00;;;3.20;99.90;;;;;;7220452;32;20190;-76
2022/01/20 06:59:01;;;;;;;11.45;1.65;;;3.20;99.90;;;;;;7214009;32;20120;-76
2022/01/20 07:03:03;;;;;;;11.77;1.90;;;3.20;99.90;;;;;;7208657;32;20267;-75
2022/01/20 07:07:06;;;;;;;12.27;2.00;;;3.20;99.90;;;;;;7198248;32;20108;-76
2022/01/20 07:11:08;;;;;;;9.77;1.52;;;3.20;99.90;;;;;;7222373;32;20169;-75
2022/01/20 07:15:11;;;;;;;18.08;2.72;;;3.10;99.90;;;;;;7223160;32;20778;-77
2022/01/20 07:19:14;;;;;;;9.63;1.90;;;3.20;99.90;;;;;;7225185;32;20215;-75
2022/01/20 07:23:16;;;;;;;11.25;1.60;;;3.10;99.90;;;;;;7229112;32;20216;-75
2022/01/20 07:27:18;;;;;;;19.45;2.60;;;3.10;99.90;;;;;;7237395;32;20246;-75
2022/01/20 07:31:22;;;;;;;19.52;2.22;;;3.20;99.90;;;;;;7232973;32;20131;-75
2022/01/20 07:35:24;;;;;;;18.08;2.05;;;3.20;99.90;;;;;;7226027;32;20446;-75
2022/01/20 07:39:27;;;;;;;16.02;2.55;;;3.20;99.90;;;;;;7213007;32;20196;-75
2022/01/20 07:43:29;;;;;;;13.02;1.83;;;3.20;99.90;;;;;;7218967;32;20452;-75
2022/01/20 07:47:31;;;;;;;16.20;2.22;;;3.30;99.90;;;;;;7202286;32;20130;-75
2022/01/20 07:51:32;;;;;;;17.70;2.30;;;3.20;99.90;;;;;;7234951;32;20125;-75
2022/01/20 07:55:34;;;;;;;17.55;2.45;;;3.20;99.90;;;;;;7231821;32;20223;-75
2022/01/20 07:59:36;;;;;;;18.92;2.65;;;3.20;99.90;;;;;;7207796;32;20113;-75
2022/01/20 08:03:38;;;;;;;20.98;3.00;;;3.20;99.90;;;;;;7203069;32;20128;-75
2022/01/20 08:07:40;;;;;;;17.65;2.50;;;3.20;99.90;;;;;;7223726;32;20319;-77
2022/01/20 08:11:42;;;;;;;22.08;2.85;;;3.20;99.90;;;;;;7203305;32;20113;-75
2022/01/20 08:15:44;;;;;;;18.05;2.53;;;3.20;99.90;;;;;;7208298;32;20233;-75
2022/01/20 08:19:46;;;;;;;17.75;4.07;;;3.20;99.90;;;;;;7213298;32;20768;-75
2022/01/20 08:23:49;;;;;;;18.55;3.70;;;3.20;99.90;;;;;;7220263;32;20164;-76
2022/01/20 08:27:50;;;;;;;11.43;2.40;;;3.10;99.90;;;;;;7218628;32;20125;-75
2022/01/20 08:31:52;;;;;;;9.93;2.12;;;3.00;99.90;;;;;;7229942;32;20105;-76
2022/01/20 08:35:54;;;;;;;13.82;2.17;;;3.00;99.90;;;;;;7225705;32;20226;-75
2022/01/20 08:39:56;;;;;;;15.85;2.22;;;3.10;99.90;;;;;;7223424;32;20583;-76
2022/01/20 08:43:58;;;;;;;12.10;2.40;;;3.10;99.90;;;;;;7220482;32;20171;-76
2022/01/20 08:48:01;;;;;;;17.77;2.03;;;3.30;99.90;;;;;;7208978;32;20521;-75
2022/01/20 08:52:03;;;;;;;17.20;2.17;;;3.30;99.90;;;;;;7208988;32;20132;-75
2022/01/20 08:56:05;;;;;;;19.70;1.83;;;3.30;99.90;;;;;;7225257;32;20215;-76
2022/01/20 09:00:09;;;;;;;15.30;1.65;;;3.40;99.90;;;;;;7212334;32;20227;-75
2022/01/20 09:04:10;;;;;;;12.50;2.37;;;3.30;99.90;;;;;;7218452;32;20118;-76
2022/01/20 09:08:13;;;;;;;13.85;1.45;;;3.40;99.90;;;;;;7227105;32;20164;-75
2022/01/20 09:16:45;;;;;;;9.52;1.40;;;3.60;99.90;;;;;;7226897;32;20194;-76
2022/01/20 09:20:48;;;;;;;7.43;1.40;;;3.60;99.90;;;;;;7228127;32;20127;-76
2022/01/20 09:24:50;;;;;;;12.70;1.60;;;3.70;99.90;;;;;;7227080;32;20121;-76
2022/01/20 09:28:52;;;;;;;12.02;1.60;;;3.80;99.90;;;;;;7208329;32;20135;-75
2022/01/20 09:33:01;;;;;;;10.68;1.48;;;3.70;99.90;;;;;;7209841;32;20187;-76
2022/01/20 09:37:03;;;;;;;8.48;1.65;;;3.90;99.90;;;;;;7226907;32;20143;-75
2022/01/20 09:41:05;;;;;;;12.68;1.50;;;4.00;99.90;;;;;;7209634;32;20155;-76
2022/01/20 09:45:07;;;;;;;10.55;1.58;;;4.20;99.90;;;;;;7224706;32;20386;-75
2022/01/20 09:49:11;;;;;;;5.43;1.55;;;4.20;99.90;;;;;;7217298;32;20101;-76
2022/01/20 09:53:13;;;;;;;12.88;2.12;;;4.10;99.90;;;;;;7205683;32;20126;-77
2022/01/20 09:57:15;;;;;;;8.38;1.70;;;3.90;99.90;;;;;;7215518;32;20120;-75
2022/01/20 10:01:40;;;;;;;13.38;2.03;;;3.90;99.90;;;;;;7221995;32;20101;-76
2022/01/20 10:05:48;;;;;;;11.82;1.87;;;3.70;99.90;;;;;;7199900;32;20109;-76
2022/01/20 10:09:52;;;;;;;9.88;1.73;;;3.70;99.90;;;;;;7232429;32;20112;-76
2022/01/20 10:13:56;;;;;;;13.32;2.00;;;3.60;99.90;;;;;;7226671;32;20126;-76
2022/01/20 10:18:24;;;;;;;9.35;1.58;;;4.00;99.90;;;;;;7220283;32;20568;-76
2022/01/20 10:22:26;;;;;;;10.95;1.70;;;4.10;99.90;;;;;;7228363;32;20139;-77
2022/01/20 10:26:28;;;;;;;11.98;2.00;;;4.40;99.90;;;;;;7226062;32;20183;-76
2022/01/20 10:30:31;;;;;;;9.95;1.37;;;4.40;99.90;;;;;;7211054;32;20314;-76
2022/01/20 10:34:35;;;;;;;8.88;1.23;;;4.40;99.90;;;;;;7227089;32;20553;-76
2022/01/20 10:38:47;;;;;;;7.93;1.50;;;4.60;99.90;;;;;;7221756;32;20167;-76
2022/01/20 10:42:49;;;;;;;9.98;1.50;;;4.40;99.90;;;;;;7226027;32;20124;-77
2022/01/20 10:46:58;;;;;;;12.13;1.25;;;4.30;99.90;;;;;;7208705;32;20707;-76
2022/01/20 10:51:00;;;;;;;7.82;0.88;;;4.40;99.90;;;;;;7240915;32;20105;-75
2022/01/20 10:55:02;;;;;;;9.32;1.20;;;4.40;99.90;;;;;;7237078;32;20116;-76
2022/01/20 10:59:07;;;;;;;12.65;1.60;;;4.30;99.90;;;;;;7251963;32;20215;-75
2022/01/20 11:03:09;;;;;;;9.05;1.80;;;4.40;99.90;;;;;;7233687;32;20234;-75
2022/01/20 11:07:11;;;;;;;11.77;1.50;;;4.20;99.90;;;;;;7207677;32;20120;-75
2022/01/20 11:11:15;;;;;;;4.72;1.20;;;4.20;99.90;;;;;;7230529;32;20199;-77
2022/01/20 11:15:20;;;;;;;10.65;1.52;;;4.40;99.90;;;;;;7210099;32;20627;-77
2022/01/20 11:19:22;;;;;;;12.65;1.30;;;4.20;99.90;;;;;;7216978;32;20146;-77
2022/01/20 11:23:36;;;;;;;9.02;1.40;;;4.30;99.90;;;;;;7216312;32;20187;-77
2022/01/20 11:27:42;;;;;;;11.00;1.80;;;4.00;99.90;;;;;;7212213;32;20167;-76
2022/01/20 11:31:44;;;;;;;11.88;2.22;;;4.10;99.90;;;;;;7208320;32;20578;-77
2022/01/20 11:36:09;;;;;;;12.48;1.90;;;4.40;99.90;;;;;;7226294;32;20278;-77
2022/01/20 11:40:30;;;;;;;13.62;4.10;;;4.70;99.90;;;;;;7215366;32;20109;-77
2022/01/20 11:44:32;;;;;;;12.37;3.20;;;4.60;99.90;;;;;;7223591;32;20117;-77
2022/01/20 11:48:34;;;;;;;14.65;2.75;;;4.50;99.90;;;;;;7217917;32;20144;-76
2022/01/20 11:52:37;;;;;;;14.07;2.33;;;4.30;99.90;;;;;;7214450;32;20113;-77
2022/01/20 11:57:08;;;;;;;10.98;1.83;;;4.30;99.90;;;;;;7215220;32;20144;-77
2022/01/20 12:01:10;;;;;;;12.27;2.17;;;4.20;99.90;;;;;;7226311;32;20167;-77
2022/01/20 12:05:27;;;;;;;12.07;1.42;;;4.30;99.90;;;;;;7218852;32;20191;-77
2022/01/20 12:09:38;;;;;;;12.30;2.47;;;4.30;99.90;;;;;;7205086;32;20644;-77
2022/01/20 12:13:48;;;;;;;5.47;1.37;;;4.30;99.90;;;;;;7231679;32;20145;-77
2022/01/20 12:17:52;;;;;;;15.05;1.60;;;4.40;99.90;;;;;;7220216;32;20128;-77
2022/01/20 12:21:54;;;;;;;9.50;1.75;;;4.50;99.90;;;;;;7220135;32;20215;-77
2022/01/20 12:26:04;;;;;;;12.07;1.62;;;4.70;99.90;;;;;;7221955;32;20187;-77
2022/01/20 12:30:15;;;;;;;13.23;1.62;;;4.70;99.90;;;;;;7206091;32;20178;-77
2022/01/20 12:34:19;;;;;;;8.63;1.60;;;4.60;99.90;;;;;;7229984;32;20135;-77
2022/01/20 12:38:22;;;;;;;11.02;1.12;;;4.60;99.90;;;;;;7230348;32;20571;-77
2022/01/20 12:42:33;;;;;;;13.65;1.52;;;4.50;99.90;;;;;;7230819;32;20213;-77
2022/01/20 12:46:38;;;;;;;9.15;1.67;;;4.00;99.90;;;;;;7224388;32;20607;-77
2022/01/20 12:50:50;;;;;;;15.23;2.05;;;3.70;99.90;;;;;;7212729;32;20124;-76
2022/01/20 12:54:53;;;;;;;14.75;1.95;;;3.30;99.90;;;;;;7215294;32;20137;-77
2022/01/20 12:58:55;;;;;;;6.90;0.95;;;2.90;99.90;;;;;;7220745;32;20251;-77
2022/01/20 13:02:56;;;;;;;5.37;0.60;;;2.00;99.90;;;;;;7210969;32;20172;-77
2022/01/20 13:07:01;;;;;;;7.05;1.20;;;1.70;99.90;;;;;;7226202;32;20620;-77
2022/01/20 13:11:19;;;;;;;2.53;0.70;;;1.40;99.90;;;;;;7218313;32;20311;-76
2022/01/20 13:15:25;;;;;;;4.37;1.25;;;1.30;99.90;;;;;;7219160;32;20236;-77
2022/01/20 13:19:36;;;;;;;4.97;1.20;;;1.30;99.90;;;;;;7220137;32;20553;-78
2022/01/20 13:23:57;;;;;;;4.82;1.85;;;1.40;99.90;;;;;;7220297;32;20512;-76
2022/01/20 13:28:08;;;;;;;5.18;1.50;;;1.50;99.90;;;;;;7237324;32;20134;-76
2022/01/20 13:32:10;;;;;;;4.25;1.60;;;1.70;99.90;;;;;;7209722;32;20143;-77
2022/01/20 13:36:12;;;;;;;6.62;2.42;;;1.60;99.90;;;;;;7218981;32;20133;-77
2022/01/20 13:40:19;;;;;;;3.10;1.83;;;1.80;99.90;;;;;;7218706;32;20567;-77
2022/01/20 13:48:42;;;;;;;4.22;1.85;;;2.10;99.90;;;;;;7226679;32;20140;-76
2022/01/20 13:52:43;;;;;;;4.80;1.80;;;2.30;99.90;;;;;;7231976;32;20349;-76
2022/01/20 13:56:52;;;;;;;6.90;1.70;;;2.30;99.90;;;;;;7222716;32;20120;-76
2022/01/20 14:00:55;;;;;;;5.60;1.55;;;2.50;99.90;;;;;;7198451;32;20200;-76
2022/01/20 14:04:57;;;;;;;9.70;3.03;;;2.70;99.90;;;;;;7223669;32;20255;-76
2022/01/20 14:09:02;;;;;;;6.00;2.25;;;2.90;99.90;;;;;;7209508;32;20186;-76
2022/01/20 14:13:04;;;;;;;13.07;2.67;;;3.10;99.90;;;;;;7224118;32;20381;-76
2022/01/20 14:17:18;;;;;;;9.40;2.65;;;3.70;99.90;;;;;;7228539;32;20212;-75
2022/01/20 14:21:20;;;;;;;7.85;1.40;;;4.50;99.90;;;;;;7229487;32;21325;-75
2022/01/20 14:25:27;;;;;;;5.97;0.98;;;4.40;99.90;;;;;;7221578;32;20236;-76
2022/01/20 14:29:29;;;;;;;9.55;1.20;;;4.30;99.90;;;;;;7197940;32;20299;-75
2022/01/20 14:33:32;;;;;;;8.75;1.02;;;4.00;99.90;;;;;;7221526;32;20780;-76
2022/01/20 14:37:46;;;;;;;11.15;1.70;;;3.90;99.90;;;;;;7233238;32;20243;-75
2022/01/20 14:41:49;;;;;;;5.50;1.00;;;3.60;99.90;;;;;;7209275;32;20653;-76
2022/01/20 14:45:52;;;;;;;7.95;1.23;;;3.70;99.90;;;;;;7215934;32;20110;-75
2022/01/20 14:49:54;;;;;;;8.68;1.25;;;3.50;99.90;;;;;;7218515;32;20247;-75
2022/01/20 14:53:56;;;;;;;7.85;1.10;;;3.50;99.90;;;;;;7209437;32;20274;-75
2022/01/20 14:57:58;;;;;;;9.18;1.60;;;3.40;99.90;;;;;;7216852;32;20810;-75
2022/01/20 15:02:01;;;;;;;11.80;1.67;;;3.30;99.90;;;;;;7223609;32;20268;-77
2022/01/20 15:06:04;;;;;;;10.13;1.05;;;3.20;99.90;;;;;;7198708;32;20134;-76
2022/01/20 15:10:07;;;;;;;8.23;1.10;;;3.00;99.90;;;;;;7222840;32;20144;-76
2022/01/20 15:14:09;;;;;;;10.45;1.23;;;3.00;99.90;;;;;;7225218;32;20113;-76
2022/01/20 15:18:11;;;;;;;7.53;1.20;;;2.90;99.90;;;;;;7232008;32;20112;-76
2022/01/20 15:22:30;;;;;;;12.82;1.40;;;2.90;99.90;;;;;;7239994;32;20093;-76
2022/01/20 15:26:33;;;;;;;7.90;1.48;;;2.80;99.90;;;;;;7249170;32;20136;-75
2022/01/20 15:30:35;;;;;;;5.47;1.30;;;2.80;99.90;;;;;;7232381;32;20271;-75
2022/01/20 15:34:37;;;;;;;8.48;1.45;;;2.80;99.90;;;;;;7228218;32;20144;-75
2022/01/20 15:38:39;;;;;;;8.13;1.58;;;2.90;99.90;;;;;;7220678;32;20235;-76
2022/01/20 15:42:41;;;;;;;5.45;0.88;;;2.80;99.90;;;;;;7236976;32;20258;-75
2022/01/20 15:46:46;;;;;;;6.80;1.58;;;2.80;99.90;;;;;;7204747;32;20191;-76
2022/01/20 15:50:48;;;;;;;8.85;0.95;;;2.90;99.90;;;;;;7215487;32;20147;-76
2022/01/20 15:54:50;;;;;;;8.95;1.30;;;2.90;99.90;;;;;;7217401;32;20293;-76
2022/01/20 15:58:52;;;;;;;8.45;1.60;;;2.90;99.90;;;;;;7230181;32;21127;-76
2022/01/20 16:02:54;;;;;;;8.73;1.27;;;2.90;99.90;;;;;;7225306;32;20840;-75
2022/01/20 16:06:56;;;;;;;7.90;0.90;;;2.80;99.90;;;;;;7232793;32;20915;-74
2022/01/20 16:10:58;;;;;;;9.15;1.10;;;2.70;99.90;;;;;;7217615;32;20794;-74
2022/01/20 16:15:00;;;;;;;8.75;1.37;;;2.80;99.90;;;;;;7237276;32;20116;-76
2022/01/20 16:19:07;;;;;;;8.52;1.30;;;2.70;99.90;;;;;;7240001;32;20106;-75
2022/01/20 16:23:10;;;;;;;13.45;1.12;;;2.80;99.90;;;;;;7247815;32;20112;-77
2022/01/20 16:27:13;;;;;;;5.30;0.90;;;2.80;99.90;;;;;;7229574;32;20116;-76
2022/01/20 16:31:15;;;;;;;8.70;1.40;;;2.90;99.90;;;;;;7232909;32;20692;-76
2022/01/20 16:35:18;;;;;;;10.88;1.67;;;2.80;99.90;;;;;;7220054;32;20432;-76
2022/01/20 16:39:20;;;;;;;9.32;1.27;;;2.70;99.90;;;;;;7221788;32;20141;-76
2022/01/20 16:43:25;;;;;;;6.28;1.45;;;2.70;99.90;;;;;;7225311;32;20158;-76
2022/01/20 16:47:27;;;;;;;12.77;1.67;;;2.80;99.90;;;;;;7214341;32;20736;-77
2022/01/20 16:51:30;;;;;;;7.43;1.35;;;2.80;99.90;;;;;;7218754;32;20117;-76
2022/01/20 16:55:32;;;;;;;10.23;1.25;;;2.80;99.90;;;;;;7211406;32;20146;-76
2022/01/20 16:59:33;;;;;;;8.80;1.52;;;2.80;99.90;;;;;;7224878;32;20132;-76
2022/01/20 17:03:36;;;;;;;8.43;1.30;;;2.90;99.90;;;;;;7240401;32;20409;-76
2022/01/20 17:07:38;;;;;;;8.63;1.40;;;2.70;99.90;;;;;;7214621;32;20151;-76
2022/01/20 17:11:40;;;;;;;13.23;1.92;;;2.70;99.90;;;;;;7213237;32;20699;-76
2022/01/20 17:15:42;;;;;;;10.63;2.62;;;2.60;99.90;;;;;;7211589;32;20184;-76
2022/01/20 17:19:44;;;;;;;16.90;3.33;;;2.50;99.90;;;;;;7205636;32;20464;-76
2022/01/20 17:23:47;;;;;;;10.55;2.58;;;2.40;99.90;;;;;;7221501;32;20114;-76
2022/01/20 17:27:49;;;;;;;12.20;2.92;;;2.40;99.90;;;;;;7222967;32;20203;-76
2022/01/20 17:31:51;;;;;;;15.80;6.47;;;2.40;99.90;;;;;;7226057;32;20190;-75
2022/01/20 17:35:53;;;;;;;17.65;3.58;;;2.30;99.90;;;;;;7215796;32;20473;-75
2022/01/20 17:39:55;;;;;;;9.65;2.62;;;2.20;99.90;;;;;;7216726;32;20226;-75
2022/01/20 17:43:57;;;;;;;14.18;3.05;;;2.10;99.90;;;;;;7214406;32;20109;-75
2022/01/20 17:47:59;;;;;;;19.75;5.60;;;2.10;99.90;;;;;;7220985;32;20187;-75
2022/01/20 17:52:02;;;;;;;20.05;5.55;;;2.20;99.90;;;;;;7221174;32;20530;-75
2022/01/20 17:56:04;;;;;;;12.85;4.97;;;2.30;99.90;;;;;;7221223;32;20133;-75
2022/01/20 18:00:10;;;;;;;18.80;4.03;;;2.20;99.90;;;;;;7212738;32;20267;-75
2022/01/20 18:04:16;;;;;;;19.50;5.68;;;2.30;99.90;;;;;;7224614;32;20556;-75
2022/01/20 18:08:18;;;;;;;12.20;4.00;;;2.30;99.90;;;;;;7231556;32;20507;-75
2022/01/20 18:12:20;;;;;;;13.57;4.15;;;2.10;99.90;;;;;;7221259;32;20136;-75
2022/01/20 18:16:22;;;;;;;15.82;4.32;;;2.00;99.90;;;;;;7232017;32;20266;-75
2022/01/20 18:20:24;;;;;;;17.08;3.87;;;2.10;99.90;;;;;;7219978;32;20165;-75
2022/01/20 18:24:25;;;;;;;7.70;2.58;;;2.00;99.90;;;;;;7224228;32;20208;-75
2022/01/20 18:28:27;;;;;;;9.27;2.47;;;2.00;99.90;;;;;;7231406;32;20497;-76
2022/01/20 18:32:29;;;;;;;13.75;2.42;;;1.90;99.90;;;;;;7218411;32;20136;-78
2022/01/20 18:36:31;;;;;;;11.93;2.83;;;1.90;99.90;;;;;;7199054;32;20549;-75
2022/01/20 18:40:33;;;;;;;15.20;2.70;;;1.80;99.90;;;;;;7213680;32;20120;-75
2022/01/20 18:44:35;;;;;;;14.57;3.65;;;1.80;99.90;;;;;;7226870;32;20224;-76
2022/01/20 18:48:37;;;;;;;13.32;2.72;;;1.80;99.90;;;;;;7226464;32;20543;-76
2022/01/20 18:52:39;;;;;;;11.73;2.42;;;1.80;99.90;;;;;;7223098;32;20167;-76
2022/01/20 18:56:41;;;;;;;15.32;3.30;;;1.70;99.90;;;;;;7219949;32;20695;-77
2022/01/20 19:00:43;;;;;;;16.25;4.68;;;1.70;99.90;;;;;;7216836;32;20191;-76
2022/01/20 19:04:49;;;;;;;13.70;2.05;;;1.60;99.90;;;;;;7228510;32;20109;-78
2022/01/20 19:08:51;;;;;;;14.02;2.17;;;1.70;99.90;;;;;;7202972;32;20174;-76
2022/01/20 19:12:53;;;;;;;9.93;2.75;;;1.60;99.90;;;;;;7228233;32;20121;-76
2022/01/20 19:16:57;;;;;;;11.77;2.40;;;1.60;99.90;;;;;;7225631;32;20196;-77
2022/01/20 19:20:59;;;;;;;19.10;3.50;;;1.60;99.90;;;;;;7231379;32;20125;-77
2022/01/20 19:25:01;;;;;;;17.65;3.37;;;1.50;99.90;;;;;;7228710;32;20120;-77
2022/01/20 19:29:03;;;;;;;21.30;5.85;;;1.50;99.90;;;;;;7221252;32;20198;-77
2022/01/20 19:33:05;;;;;;;13.02;3.25;;;1.50;99.90;;;;;;7250134;32;20163;-77
2022/01/20 19:37:11;;;;;;;8.15;1.98;;;1.50;99.90;;;;;;7241800;32;20179;-77
2022/01/20 19:41:15;;;;;;;17.13;2.37;;;1.60;99.90;;;;;;7214943;32;20581;-77
2022/01/20 19:45:17;;;;;;;13.68;2.45;;;1.50;99.90;;;;;;7227258;32;20185;-78
2022/01/20 19:49:19;;;;;;;15.80;4.07;;;1.50;99.90;;;;;;7225043;32;20109;-77
2022/01/20 19:53:21;;;;;;;10.30;2.30;;;1.50;99.90;;;;;;7226037;32;20487;-77
2022/01/20 19:57:23;;;;;;;13.32;2.40;;;1.50;99.90;;;;;;7216973;32;20116;-77
2022/01/20 20:01:27;;;;;;;12.00;2.50;;;1.50;99.90;;;;;;7212542;32;20243;-76
2022/01/20 20:05:32;;;;;;;12.05;2.35;;;1.50;99.90;;;;;;7231737;32;20122;-78
2022/01/20 20:09:44;;;;;;;14.23;1.80;;;1.40;99.90;;;;;;7218340;32;20551;-77
2022/01/20 20:13:56;;;;;;;11.90;1.95;;;1.40;99.90;;;;;;7231251;32;20215;-77
2022/01/20 20:18:08;;;;;;;15.25;2.35;;;1.40;99.90;;;;;;7222673;32;20136;-78
2022/01/20 20:22:14;;;;;;;10.68;2.78;;;1.30;99.90;;;;;;7229662;32;20117;-77
2022/01/20 20:26:18;;;;;;;10.95;2.75;;;1.30;99.90;;;;;;7236112;32;20227;-77
2022/01/20 20:30:21;;;;;;;11.45;2.17;;;1.20;99.90;;;;;;7238781;32;20537;-76
2022/01/20 20:34:23;;;;;;;11.00;2.40;;;1.20;99.90;;;;;;7227853;32;20191;-77
2022/01/20 20:38:25;;;;;;;16.58;2.50;;;1.10;99.90;;;;;;7225175;32;20113;-77
2022/01/20 20:42:27;;;;;;;16.02;2.53;;;1.10;99.90;;;;;;7203779;32;20124;-77
2022/01/20 20:46:31;;;;;;;14.63;2.65;;;1.10;99.90;;;;;;7221998;32;20541;-77
2022/01/20 20:50:33;;;;;;;15.57;2.12;;;1.20;99.90;;;;;;7235393;32;20148;-77
2022/01/20 20:54:36;;;;;;;13.75;2.42;;;1.20;99.90;;;;;;7222650;32;20475;-77
2022/01/20 20:58:38;;;;;;;10.18;1.55;;;1.40;99.90;;;;;;7226190;32;20121;-76
2022/01/20 21:02:40;;;;;;;9.38;1.70;;;1.20;99.90;;;;;;7240309;32;20120;-77
2022/01/20 21:06:42;;;;;;;11.40;2.12;;;1.20;99.90;;;;;;7236500;32;20561;-77
2022/01/20 21:10:44;;;;;;;15.55;2.03;;;1.20;99.90;;;;;;7237942;32;20117;-77
2022/01/20 21:14:47;;;;;;;17.00;2.45;;;1.10;99.90;;;;;;7248874;32;20261;-77
2022/01/20 21:18:49;;;;;;;8.93;2.12;;;1.10;99.90;;;;;;7234825;32;20116;-77
2022/01/20 21:22:51;;;;;;;10.20;1.95;;;1.00;99.90;;;;;;7227336;32;20125;-78
2022/01/20 21:26:53;;;;;;;11.77;1.67;;;1.00;99.90;;;;;;7224914;32;20174;-78
2022/01/20 21:30:55;;;;;;;10.68;2.00;;;1.00;99.90;;;;;;7234940;32;20478;-77
2022/01/20 21:34:57;;;;;;;13.35;2.00;;;0.90;99.90;;;;;;7212307;32;20166;-78
2022/01/20 21:39:00;;;;;;;9.13;2.17;;;0.90;99.90;;;;;;7232511;32;20196;-78
2022/01/20 21:43:03;;;;;;;9.75;1.98;;;0.90;99.90;;;;;;7220297;32;20136;-79
2022/01/20 21:47:06;;;;;;;17.50;2.70;;;0.90;99.90;;;;;;7226742;32;20200;-77
2022/01/20 21:51:12;;;;;;;17.80;2.37;;;0.90;99.90;;;;;;7220499;32;20510;-79
2022/01/20 21:55:15;;;;;;;8.98;1.50;;;0.80;99.90;;;;;;7210055;32;20135;-78
2022/01/20 21:59:17;;;;;;;12.40;2.08;;;0.80;99.90;;;;;;7225572;32;20322;-77
2022/01/20 22:03:20;;;;;;;11.70;2.10;;;0.70;99.90;;;;;;7229445;32;20137;-77
2022/01/20 22:07:22;;;;;;;13.30;2.40;;;0.70;99.90;;;;;;7228395;32;20153;-78
2022/01/20 22:11:23;;;;;;;13.18;2.50;;;0.70;99.90;;;;;;7219697;32;20574;-78
2022/01/20 22:15:25;;;;;;;14.02;2.37;;;0.60;99.90;;;;;;7231581;32;20582;-79
2022/01/20 22:19:27;;;;;;;18.17;2.30;;;0.60;99.90;;;;;;7224790;32;20200;-79
2022/01/20 22:23:30;;;;;;;14.27;2.20;;;0.50;99.90;;;;;;7222710;32;20134;-78
2022/01/20 22:27:32;;;;;;;6.97;1.77;;;0.40;99.90;;;;;;7225753;32;20120;-78